sensor_id;sensor_type;location;lat;lon;timestamp;temperature;humidity
65637;DHT22;52327;42.622;23.316;2023-05-18T00:02:27;10.95;92.88
65637;DHT22;52327;42.622;23.316;2023-05-18T00:04:53;10.95;93.01
65637;DHT22;52327;42.622;23.316;2023-05-18T00:07:18;10.99;92.86
65637;DHT22;52327;42.622;23.316;2023-05-18T00:09:44;11.02;92.77
65637;DHT22;52327;42.622;23.316;2023-05-18T00:12:10;10.97;92.75
65637;DHT22;52327;42.622;23.316;2023-05-18T00:14:35;11.06;92.80
65637;DHT22;52327;42.622;23.316;2023-05-18T00:17:01;11.22;92.79
65637;DHT22;52327;42.622;23.316;2023-05-18T00:19:27;11.23;92.33
65637;DHT22;52327;42.622;23.316;2023-05-18T00:21:54;11.19;92.39
65637;DHT22;52327;42.622;23.316;2023-05-18T00:24:20;11.10;92.51
65637;DHT22;52327;42.622;23.316;2023-05-18T00:26:47;11.04;92.58
65637;DHT22;52327;42.622;23.316;2023-05-18T00:29:14;11.03;92.61
65637;DHT22;52327;42.622;23.316;2023-05-18T00:31:40;11.07;92.51
65637;DHT22;52327;42.622;23.316;2023-05-18T00:34:11;11.14;92.66
65637;DHT22;52327;42.622;23.316;2023-05-18T00:36:38;11.07;92.34
65637;DHT22;52327;42.622;23.316;2023-05-18T00:39:04;11.07;92.43
65637;DHT22;52327;42.622;23.316;2023-05-18T00:41:34;11.04;92.57
65637;DHT22;52327;42.622;23.316;2023-05-18T00:43:59;11.04;92.60
65637;DHT22;52327;42.622;23.316;2023-05-18T00:46:26;10.95;92.52
65637;DHT22;52327;42.622;23.316;2023-05-18T00:48:55;10.91;92.90
65637;DHT22;52327;42.622;23.316;2023-05-18T00:51:25;11.02;92.97
65637;DHT22;52327;42.622;23.316;2023-05-18T00:53:52;11.16;92.88
65637;DHT22;52327;42.622;23.316;2023-05-18T00:56:20;11.34;92.77
65637;DHT22;52327;42.622;23.316;2023-05-18T00:58:49;11.47;92.57
65637;DHT22;52327;42.622;23.316;2023-05-18T01:01:17;11.63;92.39
65637;DHT22;52327;42.622;23.316;2023-05-18T01:03:43;11.63;91.85
65637;DHT22;52327;42.622;23.316;2023-05-18T01:06:11;11.64;91.79
65637;DHT22;52327;42.622;23.316;2023-05-18T01:08:38;11.61;91.67
65637;DHT22;52327;42.622;23.316;2023-05-18T01:20:18;11.50;92.48
65637;DHT22;52327;42.622;23.316;2023-05-18T01:28:22;11.67;92.23
65637;DHT22;52327;42.622;23.316;2023-05-18T01:30:52;11.57;92.10
65637;DHT22;52327;42.622;23.316;2023-05-18T01:33:21;11.65;92.45
65637;DHT22;52327;42.622;23.316;2023-05-18T01:35:48;11.91;92.12
65637;DHT22;52327;42.622;23.316;2023-05-18T01:38:21;11.96;92.07
65637;DHT22;52327;42.622;23.316;2023-05-18T01:40:59;12.04;91.93
65637;DHT22;52327;42.622;23.316;2023-05-18T01:43:37;12.04;91.42
65637;DHT22;52327;42.622;23.316;2023-05-18T01:48:59;11.82;91.87
65637;DHT22;52327;42.622;23.316;2023-05-18T01:51:29;11.75;91.92
65637;DHT22;52327;42.622;23.316;2023-05-18T01:54:02;11.75;92.17
65637;DHT22;52327;42.622;23.316;2023-05-18T01:56:31;11.71;92.04
65637;DHT22;52327;42.622;23.316;2023-05-18T01:59:00;11.78;92.17
65637;DHT22;52327;42.622;23.316;2023-05-18T02:01:25;11.95;91.98
65637;DHT22;52327;42.622;23.316;2023-05-18T02:03:51;12.01;91.97
65637;DHT22;52327;42.622;23.316;2023-05-18T02:06:16;12.05;91.74
65637;DHT22;52327;42.622;23.316;2023-05-18T02:08:42;12.08;91.82
65637;DHT22;52327;42.622;23.316;2023-05-18T02:11:08;12.19;91.56
65637;DHT22;52327;42.622;23.316;2023-05-18T02:13:33;12.24;91.72
65637;DHT22;52327;42.622;23.316;2023-05-18T02:15:59;12.19;91.72
65637;DHT22;52327;42.622;23.316;2023-05-18T02:18:25;12.28;91.81
65637;DHT22;52327;42.622;23.316;2023-05-18T02:20:57;12.24;91.83
65637;DHT22;52327;42.622;23.316;2023-05-18T02:23:26;12.29;91.84
65637;DHT22;52327;42.622;23.316;2023-05-18T02:25:52;12.30;91.18
65637;DHT22;52327;42.622;23.316;2023-05-18T02:28:21;12.22;91.61
65637;DHT22;52327;42.622;23.316;2023-05-18T02:30:46;12.21;91.66
65637;DHT22;52327;42.622;23.316;2023-05-18T02:33:15;12.11;91.45
65637;DHT22;52327;42.622;23.316;2023-05-18T02:35:42;12.05;91.56
65637;DHT22;52327;42.622;23.316;2023-05-18T02:38:10;12.02;91.75
65637;DHT22;52327;42.622;23.316;2023-05-18T02:40:36;12.01;91.49
65637;DHT22;52327;42.622;23.316;2023-05-18T02:43:01;12.01;91.28
65637;DHT22;52327;42.622;23.316;2023-05-18T02:45:27;11.86;91.30
65637;DHT22;52327;42.622;23.316;2023-05-18T02:48:01;11.84;91.41
65637;DHT22;52327;42.622;23.316;2023-05-18T02:50:27;11.74;91.40
65637;DHT22;52327;42.622;23.316;2023-05-18T02:52:58;11.63;91.67
65637;DHT22;52327;42.622;23.316;2023-05-18T02:55:33;11.67;91.92
65637;DHT22;52327;42.622;23.316;2023-05-18T02:58:04;11.73;92.06
65637;DHT22;52327;42.622;23.316;2023-05-18T03:00:30;11.81;92.15
65637;DHT22;52327;42.622;23.316;2023-05-18T03:02:59;11.95;92.05
65637;DHT22;52327;42.622;23.316;2023-05-18T03:05:25;11.98;91.95
65637;DHT22;52327;42.622;23.316;2023-05-18T03:07:51;12.06;91.98
65637;DHT22;52327;42.622;23.316;2023-05-18T03:10:19;12.09;91.73
65637;DHT22;52327;42.622;23.316;2023-05-18T03:12:54;12.12;91.62
65637;DHT22;52327;42.622;23.316;2023-05-18T03:15:19;12.15;91.56
65637;DHT22;52327;42.622;23.316;2023-05-18T03:17:48;12.16;91.43
65637;DHT22;52327;42.622;23.316;2023-05-18T03:20:13;12.19;91.57
65637;DHT22;52327;42.622;23.316;2023-05-18T03:22:40;12.24;91.60
65637;DHT22;52327;42.622;23.316;2023-05-18T03:25:06;12.21;91.25
65637;DHT22;52327;42.622;23.316;2023-05-18T03:27:32;12.05;91.30
65637;DHT22;52327;42.622;23.316;2023-05-18T03:30:02;11.95;91.12
65637;DHT22;52327;42.622;23.316;2023-05-18T03:32:28;11.61;91.81
65637;DHT22;52327;42.622;23.316;2023-05-18T03:34:56;11.55;92.07
65637;DHT22;52327;42.622;23.316;2023-05-18T03:37:21;11.70;91.72
65637;DHT22;52327;42.622;23.316;2023-05-18T03:39:47;11.71;91.74
65637;DHT22;52327;42.622;23.316;2023-05-18T03:42:15;11.53;91.92
65637;DHT22;52327;42.622;23.316;2023-05-18T03:44:40;11.60;92.14
65637;DHT22;52327;42.622;23.316;2023-05-18T03:47:06;11.50;92.26
65637;DHT22;52327;42.622;23.316;2023-05-18T03:49:33;11.41;92.21
65637;DHT22;52327;42.622;23.316;2023-05-18T03:51:59;11.54;92.53
65637;DHT22;52327;42.622;23.316;2023-05-18T03:54:25;11.58;92.38
65637;DHT22;52327;42.622;23.316;2023-05-18T03:56:53;11.55;92.04
65637;DHT22;52327;42.622;23.316;2023-05-18T03:59:18;11.47;92.18
65637;DHT22;52327;42.622;23.316;2023-05-18T04:01:44;11.60;92.35
65637;DHT22;52327;42.622;23.316;2023-05-18T04:04:10;11.75;92.27
65637;DHT22;52327;42.622;23.316;2023-05-18T04:06:45;11.94;91.82
65637;DHT22;52327;42.622;23.316;2023-05-18T04:09:14;11.86;91.67
65637;DHT22;52327;42.622;23.316;2023-05-18T04:11:56;11.92;92.01
65637;DHT22;52327;42.622;23.316;2023-05-18T04:14:24;11.53;91.82
65637;DHT22;52327;42.622;23.316;2023-05-18T04:16:53;11.41;92.89
65637;DHT22;52327;42.622;23.316;2023-05-18T04:19:21;11.60;92.83
65637;DHT22;52327;42.622;23.316;2023-05-18T04:21:46;11.53;92.42
65637;DHT22;52327;42.622;23.316;2023-05-18T04:24:13;11.51;92.34
65637;DHT22;52327;42.622;23.316;2023-05-18T04:26:41;11.30;92.94
65637;DHT22;52327;42.622;23.316;2023-05-18T04:29:07;11.44;93.22
65637;DHT22;52327;42.622;23.316;2023-05-18T04:31:36;11.57;92.71
65637;DHT22;52327;42.622;23.316;2023-05-18T04:34:01;11.60;92.09
65637;DHT22;52327;42.622;23.316;2023-05-18T04:36:27;11.61;92.08
65637;DHT22;52327;42.622;23.316;2023-05-18T04:38:57;11.68;92.12
65637;DHT22;52327;42.622;23.316;2023-05-18T04:41:24;11.71;92.18
65637;DHT22;52327;42.622;23.316;2023-05-18T04:43:49;11.88;91.91
65637;DHT22;52327;42.622;23.316;2023-05-18T04:46:15;11.95;92.16
65637;DHT22;52327;42.622;23.316;2023-05-18T04:48:41;11.98;92.06
65637;DHT22;52327;42.622;23.316;2023-05-18T04:51:06;11.85;91.25
65637;DHT22;52327;42.622;23.316;2023-05-18T04:53:32;11.75;92.16
65637;DHT22;52327;42.622;23.316;2023-05-18T04:55:58;11.86;92.04
65637;DHT22;52327;42.622;23.316;2023-05-18T04:58:27;11.95;92.04
65637;DHT22;52327;42.622;23.316;2023-05-18T05:00:52;12.05;91.81
65637;DHT22;52327;42.622;23.316;2023-05-18T05:03:18;11.99;91.51
65637;DHT22;52327;42.622;23.316;2023-05-18T05:05:43;12.04;91.78
65637;DHT22;52327;42.622;23.316;2023-05-18T05:08:09;12.21;91.84
65637;DHT22;52327;42.622;23.316;2023-05-18T05:10:34;12.32;91.28
65637;DHT22;52327;42.622;23.316;2023-05-18T05:13:00;12.33;91.08
65637;DHT22;52327;42.622;23.316;2023-05-18T05:15:25;12.28;91.37
65637;DHT22;52327;42.622;23.316;2023-05-18T05:17:51;12.16;91.31
65637;DHT22;52327;42.622;23.316;2023-05-18T05:20:16;12.26;91.77
65637;DHT22;52327;42.622;23.316;2023-05-18T05:22:42;12.28;91.74
65637;DHT22;52327;42.622;23.316;2023-05-18T05:25:08;12.49;91.83
65637;DHT22;52327;42.622;23.316;2023-05-18T05:27:33;12.57;91.63
65637;DHT22;52327;42.622;23.316;2023-05-18T05:29:59;12.56;91.04
65637;DHT22;52327;42.622;23.316;2023-05-18T05:32:24;12.66;91.48
65637;DHT22;52327;42.622;23.316;2023-05-18T05:34:50;12.72;91.50
65637;DHT22;52327;42.622;23.316;2023-05-18T05:37:16;12.56;90.31
65637;DHT22;52327;42.622;23.316;2023-05-18T05:39:42;12.55;91.05
65637;DHT22;52327;42.622;23.316;2023-05-18T05:42:08;12.47;91.15
65637;DHT22;52327;42.622;23.316;2023-05-18T05:44:34;12.49;91.24
65637;DHT22;52327;42.622;23.316;2023-05-18T05:47:00;12.55;91.14
65637;DHT22;52327;42.622;23.316;2023-05-18T05:49:25;12.52;91.11
65637;DHT22;52327;42.622;23.316;2023-05-18T05:51:51;12.46;91.07
65637;DHT22;52327;42.622;23.316;2023-05-18T05:54:17;12.42;90.61
65637;DHT22;52327;42.622;23.316;2023-05-18T05:56:42;12.35;91.15
65637;DHT22;52327;42.622;23.316;2023-05-18T05:59:07;12.35;90.69
65637;DHT22;52327;42.622;23.316;2023-05-18T06:01:33;12.29;90.82
65637;DHT22;52327;42.622;23.316;2023-05-18T06:03:59;12.28;91.15
65637;DHT22;52327;42.622;23.316;2023-05-18T06:06:26;12.11;90.71
65637;DHT22;52327;42.622;23.316;2023-05-18T06:08:51;11.86;91.30
65637;DHT22;52327;42.622;23.316;2023-05-18T06:11:17;11.96;91.80
65637;DHT22;52327;42.622;23.316;2023-05-18T06:13:42;12.18;90.97
65637;DHT22;52327;42.622;23.316;2023-05-18T06:16:07;12.14;91.04
65637;DHT22;52327;42.622;23.316;2023-05-18T06:18:33;12.15;91.41
65637;DHT22;52327;42.622;23.316;2023-05-18T06:20:59;12.14;91.06
65637;DHT22;52327;42.622;23.316;2023-05-18T06:23:24;12.06;91.23
65637;DHT22;52327;42.622;23.316;2023-05-18T06:25:50;12.11;91.51
65637;DHT22;52327;42.622;23.316;2023-05-18T06:28:16;12.04;91.27
65637;DHT22;52327;42.622;23.316;2023-05-18T06:30:41;12.16;91.51
65637;DHT22;52327;42.622;23.316;2023-05-18T06:33:06;12.25;91.58
65637;DHT22;52327;42.622;23.316;2023-05-18T06:35:32;12.32;91.27
65637;DHT22;52327;42.622;23.316;2023-05-18T06:37:58;12.16;90.91
65637;DHT22;52327;42.622;23.316;2023-05-18T06:40:24;12.05;91.39
65637;DHT22;52327;42.622;23.316;2023-05-18T06:42:49;12.14;91.69
65637;DHT22;52327;42.622;23.316;2023-05-18T06:45:14;12.15;91.71
65637;DHT22;52327;42.622;23.316;2023-05-18T06:47:41;12.24;91.71
65637;DHT22;52327;42.622;23.316;2023-05-18T06:50:08;12.24;91.37
65637;DHT22;52327;42.622;23.316;2023-05-18T06:52:33;11.91;91.60
65637;DHT22;52327;42.622;23.316;2023-05-18T06:54:59;11.92;91.94
65637;DHT22;52327;42.622;23.316;2023-05-18T06:57:25;11.96;92.17
65637;DHT22;52327;42.622;23.316;2023-05-18T06:59:51;12.02;92.16
65637;DHT22;52327;42.622;23.316;2023-05-18T07:02:18;12.08;91.88
65637;DHT22;52327;42.622;23.316;2023-05-18T07:04:45;11.77;92.04
65637;DHT22;52327;42.622;23.316;2023-05-18T07:07:11;11.73;92.42
65637;DHT22;52327;42.622;23.316;2023-05-18T07:09:36;11.67;92.31
65637;DHT22;52327;42.622;23.316;2023-05-18T07:12:02;11.78;92.25
65637;DHT22;52327;42.622;23.316;2023-05-18T07:14:27;11.86;91.92
65637;DHT22;52327;42.622;23.316;2023-05-18T07:16:53;11.94;91.80
65637;DHT22;52327;42.622;23.316;2023-05-18T07:19:18;11.89;91.80
65637;DHT22;52327;42.622;23.316;2023-05-18T07:21:44;11.85;91.88
65637;DHT22;52327;42.622;23.316;2023-05-18T07:24:09;11.77;91.72
65637;DHT22;52327;42.622;23.316;2023-05-18T07:26:34;11.71;91.57
65637;DHT22;52327;42.622;23.316;2023-05-18T07:29:00;11.57;91.85
65637;DHT22;52327;42.622;23.316;2023-05-18T07:31:26;11.64;92.42
65637;DHT22;52327;42.622;23.316;2023-05-18T07:33:51;11.67;92.62
65637;DHT22;52327;42.622;23.316;2023-05-18T07:36:16;11.86;92.61
65637;DHT22;52327;42.622;23.316;2023-05-18T07:38:42;11.81;92.66
65637;DHT22;52327;42.622;23.316;2023-05-18T07:41:08;11.98;92.78
65637;DHT22;52327;42.622;23.316;2023-05-18T07:43:33;12.11;91.96
65637;DHT22;52327;42.622;23.316;2023-05-18T07:46:00;12.06;91.81
65637;DHT22;52327;42.622;23.316;2023-05-18T07:48:25;11.99;91.61
65637;DHT22;52327;42.622;23.316;2023-05-18T07:50:51;11.96;91.83
65637;DHT22;52327;42.622;23.316;2023-05-18T07:53:16;12.09;91.29
65637;DHT22;52327;42.622;23.316;2023-05-18T07:55:42;12.14;91.41
65637;DHT22;52327;42.622;23.316;2023-05-18T07:58:08;12.21;90.83
65637;DHT22;52327;42.622;23.316;2023-05-18T08:00:33;12.24;90.89
65637;DHT22;52327;42.622;23.316;2023-05-18T08:02:59;12.19;90.75
65637;DHT22;52327;42.622;23.316;2023-05-18T08:05:25;11.99;90.55
65637;DHT22;52327;42.622;23.316;2023-05-18T08:07:50;11.95;91.07
65637;DHT22;52327;42.622;23.316;2023-05-18T08:10:16;11.96;91.21
65637;DHT22;52327;42.622;23.316;2023-05-18T08:12:42;11.84;91.39
65637;DHT22;52327;42.622;23.316;2023-05-18T08:15:08;11.79;91.21
65637;DHT22;52327;42.622;23.316;2023-05-18T08:17:33;11.65;91.45
65637;DHT22;52327;42.622;23.316;2023-05-18T08:19:58;11.64;92.02
65637;DHT22;52327;42.622;23.316;2023-05-18T08:22:24;11.65;92.06
65637;DHT22;52327;42.622;23.316;2023-05-18T08:24:49;11.63;92.08
65637;DHT22;52327;42.622;23.316;2023-05-18T08:27:16;11.64;92.08
65637;DHT22;52327;42.622;23.316;2023-05-18T08:29:41;11.82;92.31
65637;DHT22;52327;42.622;23.316;2023-05-18T08:32:07;12.02;92.24
65637;DHT22;52327;42.622;23.316;2023-05-18T08:34:35;12.18;91.84
65637;DHT22;52327;42.622;23.316;2023-05-18T08:37:02;12.30;91.63
65637;DHT22;52327;42.622;23.316;2023-05-18T08:39:28;12.28;91.16
65637;DHT22;52327;42.622;23.316;2023-05-18T08:47:21;12.14;90.77
65637;DHT22;52327;42.622;23.316;2023-05-18T08:49:51;12.18;91.49
65637;DHT22;52327;42.622;23.316;2023-05-18T08:52:21;12.22;91.49
65637;DHT22;52327;42.622;23.316;2023-05-18T08:54:50;12.35;91.48
65637;DHT22;52327;42.622;23.316;2023-05-18T08:57:19;12.43;91.08
65637;DHT22;52327;42.622;23.316;2023-05-18T08:59:51;12.39;91.13
65637;DHT22;52327;42.622;23.316;2023-05-18T09:02:20;12.49;91.25
65637;DHT22;52327;42.622;23.316;2023-05-18T09:04:46;12.49;91.09
65637;DHT22;52327;42.622;23.316;2023-05-18T09:07:13;12.56;90.93
65637;DHT22;52327;42.622;23.316;2023-05-18T09:10:02;12.66;90.24
65637;DHT22;52327;42.622;23.316;2023-05-18T09:12:29;12.66;90.34
65637;DHT22;52327;42.622;23.316;2023-05-18T09:14:57;12.68;90.32
65637;DHT22;52327;42.622;23.316;2023-05-18T09:17:23;12.67;90.25
65637;DHT22;52327;42.622;23.316;2023-05-18T09:19:52;12.66;90.24
65637;DHT22;52327;42.622;23.316;2023-05-18T09:22:17;12.70;90.05
65637;DHT22;52327;42.622;23.316;2023-05-18T09:24:43;12.64;89.99
65637;DHT22;52327;42.622;23.316;2023-05-18T09:27:09;12.61;90.27
65637;DHT22;52327;42.622;23.316;2023-05-18T09:29:35;12.64;90.44
65637;DHT22;52327;42.622;23.316;2023-05-18T09:32:09;12.66;90.20
65637;DHT22;52327;42.622;23.316;2023-05-18T09:34:40;12.64;90.19
65637;DHT22;52327;42.622;23.316;2023-05-18T09:37:05;12.66;90.35
65637;DHT22;52327;42.622;23.316;2023-05-18T09:39:31;12.73;90.12
65637;DHT22;52327;42.622;23.316;2023-05-18T09:41:56;12.77;90.03
65637;DHT22;52327;42.622;23.316;2023-05-18T09:44:42;12.72;89.72
65637;DHT22;52327;42.622;23.316;2023-05-18T09:47:10;12.67;90.31
65637;DHT22;52327;42.622;23.316;2023-05-18T09:49:35;12.76;90.28
65637;DHT22;52327;42.622;23.316;2023-05-18T09:52:02;12.72;90.40
65637;DHT22;52327;42.622;23.316;2023-05-18T09:54:31;12.76;90.34
65637;DHT22;52327;42.622;23.316;2023-05-18T09:56:56;12.72;90.29
65637;DHT22;52327;42.622;23.316;2023-05-18T09:59:22;12.72;90.39
65637;DHT22;52327;42.622;23.316;2023-05-18T10:01:54;12.72;90.36
65637;DHT22;52327;42.622;23.316;2023-05-18T10:04:20;12.76;89.25
65637;DHT22;52327;42.622;23.316;2023-05-18T10:06:49;12.73;90.28
65637;DHT22;52327;42.622;23.316;2023-05-18T10:09:18;12.76;90.55
65637;DHT22;52327;42.622;23.316;2023-05-18T10:11:43;12.87;90.14
65637;DHT22;52327;42.622;23.316;2023-05-18T10:14:12;12.97;90.01
65637;DHT22;52327;42.622;23.316;2023-05-18T10:16:39;12.96;89.67
65637;DHT22;52327;42.622;23.316;2023-05-18T10:19:06;12.91;90.17
65637;DHT22;52327;42.622;23.316;2023-05-18T10:21:36;13.06;90.06
65637;DHT22;52327;42.622;23.316;2023-05-18T10:24:03;13.14;89.15
65637;DHT22;52327;42.622;23.316;2023-05-18T10:26:34;12.98;89.93
65637;DHT22;52327;42.622;23.316;2023-05-18T10:29:03;12.86;89.84
65637;DHT22;52327;42.622;23.316;2023-05-18T10:31:29;12.76;90.33
65637;DHT22;52327;42.622;23.316;2023-05-18T10:33:56;12.79;90.58
65637;DHT22;52327;42.622;23.316;2023-05-18T10:36:24;12.90;90.48
65637;DHT22;52327;42.622;23.316;2023-05-18T10:38:50;12.96;90.49
65637;DHT22;52327;42.622;23.316;2023-05-18T10:41:17;12.98;90.26
65637;DHT22;52327;42.622;23.316;2023-05-18T10:43:46;13.10;90.03
65637;DHT22;52327;42.622;23.316;2023-05-18T10:46:13;13.21;90.09
65637;DHT22;52327;42.622;23.316;2023-05-18T10:48:41;13.39;89.19
65637;DHT22;52327;42.622;23.316;2023-05-18T10:51:09;13.38;89.58
65637;DHT22;52327;42.622;23.316;2023-05-18T10:53:35;13.44;89.02
65637;DHT22;52327;42.622;23.316;2023-05-18T10:56:01;13.51;88.71
65637;DHT22;52327;42.622;23.316;2023-05-18T10:58:28;13.54;88.16
65637;DHT22;52327;42.622;23.316;2023-05-18T11:00:56;13.51;88.57
65637;DHT22;52327;42.622;23.316;2023-05-18T11:03:23;13.51;88.55
65637;DHT22;52327;42.622;23.316;2023-05-18T11:06:02;13.38;88.81
65637;DHT22;52327;42.622;23.316;2023-05-18T11:08:28;13.34;89.16
65637;DHT22;52327;42.622;23.316;2023-05-18T11:11:04;13.39;88.49
65637;DHT22;52327;42.622;23.316;2023-05-18T11:13:32;13.37;88.69
65637;DHT22;52327;42.622;23.316;2023-05-18T11:20:58;13.38;89.17
65637;DHT22;52327;42.622;23.316;2023-05-18T11:23:30;13.47;88.76
65637;DHT22;52327;42.622;23.316;2023-05-18T11:25:59;13.65;88.37
65637;DHT22;52327;42.622;23.316;2023-05-18T11:28:27;13.83;87.60
65637;DHT22;52327;42.622;23.316;2023-05-18T11:30:53;13.80;88.02
65637;DHT22;52327;42.622;23.316;2023-05-18T11:36:11;13.63;88.58
65637;DHT22;52327;42.622;23.316;2023-05-18T11:44:17;13.47;88.61
65637;DHT22;52327;42.622;23.316;2023-05-18T11:49:47;13.49;89.37
65637;DHT22;52327;42.622;23.316;2023-05-18T11:52:21;13.49;89.19
65637;DHT22;52327;42.622;23.316;2023-05-18T11:54:59;13.54;89.09
65637;DHT22;52327;42.622;23.316;2023-05-18T12:00:00;13.69;89.03
65637;DHT22;52327;42.622;23.316;2023-05-18T12:02:30;13.70;88.43
65637;DHT22;52327;42.622;23.316;2023-05-18T12:04:57;13.76;88.74
65637;DHT22;52327;42.622;23.316;2023-05-18T12:07:25;13.80;88.98
65637;DHT22;52327;42.622;23.316;2023-05-18T12:09:59;13.90;88.65
65637;DHT22;52327;42.622;23.316;2023-05-18T12:12:26;14.02;88.20
65637;DHT22;52327;42.622;23.316;2023-05-18T12:14:55;14.06;88.58
65637;DHT22;52327;42.622;23.316;2023-05-18T12:17:21;14.13;88.59
65637;DHT22;52327;42.622;23.316;2023-05-18T12:19:48;14.21;87.91
65637;DHT22;52327;42.622;23.316;2023-05-18T12:22:15;14.27;88.27
65637;DHT22;52327;42.622;23.316;2023-05-18T12:24:42;14.31;88.34
65637;DHT22;52327;42.622;23.316;2023-05-18T12:27:09;14.51;88.06
65637;DHT22;52327;42.622;23.316;2023-05-18T12:29:39;14.43;88.09
65637;DHT22;52327;42.622;23.316;2023-05-18T12:32:08;14.34;88.36
65637;DHT22;52327;42.622;23.316;2023-05-18T12:34:35;14.30;88.48
65637;DHT22;52327;42.622;23.316;2023-05-18T12:37:01;14.29;88.40
65637;DHT22;52327;42.622;23.316;2023-05-18T12:39:26;14.26;88.52
65637;DHT22;52327;42.622;23.316;2023-05-18T12:41:52;14.21;87.40
65637;DHT22;52327;42.622;23.316;2023-05-18T12:44:17;14.02;88.10
65637;DHT22;52327;42.622;23.316;2023-05-18T12:46:43;13.92;88.63
65637;DHT22;52327;42.622;23.316;2023-05-18T12:49:08;13.85;88.88
65637;DHT22;52327;42.622;23.316;2023-05-18T12:51:35;13.83;89.33
65637;DHT22;52327;42.622;23.316;2023-05-18T12:54:01;13.82;89.27
65637;DHT22;52327;42.622;23.316;2023-05-18T12:56:48;13.82;89.38
65637;DHT22;52327;42.622;23.316;2023-05-18T12:59:17;13.86;88.93
65637;DHT22;52327;42.622;23.316;2023-05-18T13:01:44;13.76;89.20
65637;DHT22;52327;42.622;23.316;2023-05-18T13:04:10;13.75;89.45
65637;DHT22;52327;42.622;23.316;2023-05-18T13:06:39;13.72;89.86
65637;DHT22;52327;42.622;23.316;2023-05-18T13:09:11;13.73;89.86
65637;DHT22;52327;42.622;23.316;2023-05-18T13:11:37;13.72;88.96
65637;DHT22;52327;42.622;23.316;2023-05-18T13:14:05;13.37;88.72
65637;DHT22;52327;42.622;23.316;2023-05-18T13:16:33;13.04;88.38
65637;DHT22;52327;42.622;23.316;2023-05-18T13:19:06;12.70;88.96
65637;DHT22;52327;42.622;23.316;2023-05-18T13:21:32;12.57;90.28
65637;DHT22;52327;42.622;23.316;2023-05-18T13:23:58;12.59;90.69
65637;DHT22;52327;42.622;23.316;2023-05-18T13:26:25;12.59;90.80
65637;DHT22;52327;42.622;23.316;2023-05-18T13:28:53;12.72;90.86
65637;DHT22;52327;42.622;23.316;2023-05-18T13:31:19;12.76;90.71
65637;DHT22;52327;42.622;23.316;2023-05-18T13:33:45;12.90;90.70
65637;DHT22;52327;42.622;23.316;2023-05-18T13:36:11;12.97;90.55
65637;DHT22;52327;42.622;23.316;2023-05-18T13:38:36;13.07;90.54
65637;DHT22;52327;42.622;23.316;2023-05-18T13:41:03;13.24;90.38
65637;DHT22;52327;42.622;23.316;2023-05-18T13:43:29;13.27;90.27
65637;DHT22;52327;42.622;23.316;2023-05-18T13:45:55;13.25;90.01
65637;DHT22;52327;42.622;23.316;2023-05-18T13:48:20;13.17;88.95
65637;DHT22;52327;42.622;23.316;2023-05-18T13:50:46;13.19;89.51
65637;DHT22;52327;42.622;23.316;2023-05-18T13:53:11;13.28;89.99
65637;DHT22;52327;42.622;23.316;2023-05-18T13:55:37;13.42;89.99
65637;DHT22;52327;42.622;23.316;2023-05-18T13:58:02;13.48;89.93
65637;DHT22;52327;42.622;23.316;2023-05-18T14:00:27;13.44;89.95
65637;DHT22;52327;42.622;23.316;2023-05-18T14:02:53;13.42;90.16
65637;DHT22;52327;42.622;23.316;2023-05-18T14:05:18;13.48;89.97
65637;DHT22;52327;42.622;23.316;2023-05-18T14:07:47;13.58;89.74
65637;DHT22;52327;42.622;23.316;2023-05-18T14:10:13;13.52;89.25
65637;DHT22;52327;42.622;23.316;2023-05-18T14:12:38;13.52;89.69
65637;DHT22;52327;42.622;23.316;2023-05-18T14:15:06;13.55;89.71
65637;DHT22;52327;42.622;23.316;2023-05-18T14:17:33;13.63;89.71
65637;DHT22;52327;42.622;23.316;2023-05-18T14:19:58;13.65;89.80
65637;DHT22;52327;42.622;23.316;2023-05-18T14:22:24;13.61;89.84
65637;DHT22;52327;42.622;23.316;2023-05-18T14:24:58;13.59;90.05
65637;DHT22;52327;42.622;23.316;2023-05-18T14:27:23;13.57;90.16
65637;DHT22;52327;42.622;23.316;2023-05-18T14:29:59;13.58;90.01
65637;DHT22;52327;42.622;23.316;2023-05-18T14:32:25;13.59;89.91
65637;DHT22;52327;42.622;23.316;2023-05-18T14:34:51;13.59;89.85
65637;DHT22;52327;42.622;23.316;2023-05-18T14:37:19;13.55;89.81
65637;DHT22;52327;42.622;23.316;2023-05-18T14:39:45;13.54;89.92
65637;DHT22;52327;42.622;23.316;2023-05-18T14:42:10;13.48;89.97
65637;DHT22;52327;42.622;23.316;2023-05-18T14:44:35;13.51;89.97
65637;DHT22;52327;42.622;23.316;2023-05-18T14:47:01;13.47;89.83
65637;DHT22;52327;42.622;23.316;2023-05-18T14:49:26;13.44;90.02
65637;DHT22;52327;42.622;23.316;2023-05-18T14:51:52;13.48;89.41
65637;DHT22;52327;42.622;23.316;2023-05-18T14:54:17;13.44;89.56
65637;DHT22;52327;42.622;23.316;2023-05-18T14:56:43;13.41;89.80
65637;DHT22;52327;42.622;23.316;2023-05-18T14:59:09;13.37;90.01
65637;DHT22;52327;42.622;23.316;2023-05-18T15:01:34;13.42;89.85
65637;DHT22;52327;42.622;23.316;2023-05-18T15:04:00;13.45;89.73
65637;DHT22;52327;42.622;23.316;2023-05-18T15:06:25;13.49;89.94
65637;DHT22;52327;42.622;23.316;2023-05-18T15:08:51;13.62;90.09
65637;DHT22;52327;42.622;23.316;2023-05-18T15:11:16;13.73;90.00
65637;DHT22;52327;42.622;23.316;2023-05-18T15:13:41;13.83;89.78
65637;DHT22;52327;42.622;23.316;2023-05-18T15:16:08;13.93;89.63
65637;DHT22;52327;42.622;23.316;2023-05-18T15:18:33;14.03;89.30
65637;DHT22;52327;42.622;23.316;2023-05-18T15:20:59;14.10;88.72
65637;DHT22;52327;42.622;23.316;2023-05-18T15:23:24;14.03;88.91
65637;DHT22;52327;42.622;23.316;2023-05-18T15:25:50;14.02;87.70
65637;DHT22;52327;42.622;23.316;2023-05-18T15:28:16;13.92;87.26
65637;DHT22;52327;42.622;23.316;2023-05-18T15:30:41;13.69;88.56
65637;DHT22;52327;42.622;23.316;2023-05-18T15:33:06;13.58;89.12
65637;DHT22;52327;42.622;23.316;2023-05-18T15:35:32;13.51;89.59
65637;DHT22;52327;42.622;23.316;2023-05-18T15:37:59;13.48;89.99
65637;DHT22;52327;42.622;23.316;2023-05-18T15:40:24;13.44;90.02
65637;DHT22;52327;42.622;23.316;2023-05-18T15:42:50;13.44;90.19
65637;DHT22;52327;42.622;23.316;2023-05-18T15:45:15;13.54;89.36
65637;DHT22;52327;42.622;23.316;2023-05-18T15:47:41;13.54;88.45
65637;DHT22;52327;42.622;23.316;2023-05-18T15:50:07;13.45;88.04
65637;DHT22;52327;42.622;23.316;2023-05-18T15:52:33;13.39;87.97
65637;DHT22;52327;42.622;23.316;2023-05-18T15:54:58;13.37;87.50
65637;DHT22;52327;42.622;23.316;2023-05-18T15:57:23;13.27;88.14